Quick Links (Output Below):   Max & Min Temps   /   Climate Reports   /   Zone Forecasts
River Forecasts   /   Forestry Forecasts   /   Aviation Forecasts   /   Radars   /   Features

Terminal Aerodrome Forecast (Little Rock)

Pick a Site:
Arkadelphia | El Dorado | Fayetteville | Fort Smith | Harrison | Highfill | Hot Springs | Jonesboro
Little Rock | Monticello | Mountain Home | Pine Bluff | Texarkana
 Forecast 

KLIT 041720Z 0418/0518 22007KT P6SM VCSH BKN015 BKN060
     FM042000 26007KT P6SM VCTS SCT050CB BKN100
     FM050100 VRB03KT P6SM SCT050 BKN100
     FM050800 VRB03KT P6SM SCT015 BKN050
      TEMPO 0510/0514 3SM BR BKN015
     FM051400 26006KT P6SM SCT050=


 Latest METARs (Observations) 
How to Decode METARs
18Z KLIT 041753Z 24004KT 10SM SCT019 BKN150 26/20 A2999 RMK AO2 SLP156
         SCT V BKN 60035 T02610200 10267 20222 50002 $
         
13Z KLIT 041253Z 23012KT 3SM +RA BR BKN007 OVC018 22/20 A2998 RMK AO2
         RAB35 SLP151 VIS S-W 3/4 DCRG P0006 T02220200 $
         
12Z KLIT 041153Z 00000KT 10SM OVC011 22/19 A2997 RMK AO2 SLP150 60001
         70240 T02220194 10222 20211 53008 $
         
11Z KLIT 041053Z 00000KT 7SM SCT018 BKN060 BKN250 22/19 A2995 RMK AO2
         SLP143 T02170194 $
         
09Z KLIT 040853Z 17003KT 10SM SCT005 BKN060 21/19 A2995 RMK AO2 SLP142
         60001 T02110194 53013 $
         
08Z KLIT 040753Z 11003KT 10SM CLR 21/19 A2993 RMK AO2 SLP136 T02110189
         $
         
07Z KLIT 040653Z 34004KT 10SM FEW090 OVC250 21/19 A2990 RMK AO2 RAE45
         SLP126 P0001 T02110189 $
         
05Z KLIT 040453Z 26007KT 10SM BKN090 OVC250 22/19 A2991 RMK AO2
         TSB00E35RAE48 SLP128 OCNL LTG DSNT S TS MOVD S P0010
         T02170189 $
         
03Z KLIT 040253Z 26008KT 10SM FEW010 SCT018 BKN120 OVC250 24/22 A2992
         RMK AO2 SLP131 OCNL LTGIC DSNT W-NW CB DSNT W-NW MOV S
         T02440222 53012 $
         
***** Today's Observations (Above) *****


23Z KLIT 032253Z 22009KT 10SM FEW015 SCT060 SCT110 SCT250 25/21 A2990
         RMK AO2 RAE07 SLP123 LN CB TOPS DSNT NW-NE P0001
         T02500211
         
***** Yesterday's Observations (Above) *****


Back to Main Page
http://www.srh.noaa.gov/lzk/qfcst.php

USA.gov is the U.S. government's official web portal to all federal, state and local government web resources and services.